Time;durP1;ratioP1;P1;durP2;ratioP2;P2;SDS_P1;SDS_P2;PMS_P1;PMS_P2;Temp;Humidity;BMP_temperature;BMP_pressure;BME280_temperature;BME280_humidity;BME280_pressure;Samples;Min_cycle;Max_cycle;Signal;HPM_P1;HPM_P2
2023/05/03 00:01:31;;;;;;;4.07;2.23;;;10.50;99.90;;;;;;5062059;28;20213;-69
2023/05/03 00:03:57;;;;;;;6.80;2.40;;;10.40;99.90;;;;;;5061687;28;20215;-69
2023/05/03 00:06:22;;;;;;;3.00;1.80;;;10.40;99.90;;;;;;5071191;28;20186;-71
2023/05/03 00:08:48;;;;;;;9.00;3.10;;;10.30;99.90;;;;;;5073591;28;20268;-70
2023/05/03 00:11:14;;;;;;;4.20;2.47;;;10.20;99.90;;;;;;5070735;28;20727;-70
2023/05/03 00:13:41;;;;;;;3.73;2.50;;;10.30;99.90;;;;;;5072797;28;20202;-70
2023/05/03 00:16:06;;;;;;;5.27;2.77;;;10.20;99.90;;;;;;5069009;28;20702;-71
2023/05/03 00:18:32;;;;;;;5.20;2.67;;;10.10;99.90;;;;;;5070809;28;20205;-70
2023/05/03 00:20:58;;;;;;;6.53;2.80;;;10.20;99.90;;;;;;5067650;28;20594;-71
2023/05/03 00:23:25;;;;;;;8.40;2.60;;;10.20;99.90;;;;;;5067906;28;20230;-69
2023/05/03 00:25:55;;;;;;;5.03;2.10;;;10.20;99.90;;;;;;5068801;28;20209;-70
2023/05/03 00:28:21;;;;;;;3.07;2.03;;;10.20;99.90;;;;;;5066304;28;20214;-73
2023/05/03 00:30:47;;;;;;;4.37;2.30;;;10.00;99.90;;;;;;5067476;28;20195;-72
2023/05/03 00:33:13;;;;;;;5.40;2.30;;;10.10;99.90;;;;;;5064675;28;20282;-73
2023/05/03 00:35:39;;;;;;;7.10;2.33;;;10.00;99.90;;;;;;5072405;28;20211;-72
2023/05/03 00:38:05;;;;;;;4.57;2.33;;;9.90;99.90;;;;;;5062844;28;20219;-72
2023/05/03 00:40:31;;;;;;;8.83;2.50;;;9.80;99.90;;;;;;5068628;28;20559;-72
2023/05/03 00:42:56;;;;;;;4.27;2.33;;;9.80;99.90;;;;;;5073238;28;20316;-70
2023/05/03 00:45:22;;;;;;;4.27;2.33;;;9.90;99.90;;;;;;5068959;28;20182;-71
2023/05/03 00:47:48;;;;;;;4.73;2.03;;;9.90;99.90;;;;;;5071881;28;20301;-71
2023/05/03 00:50:14;;;;;;;9.40;2.80;;;9.80;99.90;;;;;;5069895;28;20298;-72
2023/05/03 00:52:40;;;;;;;4.60;2.80;;;9.80;99.90;;;;;;5071596;28;20210;-70
2023/05/03 00:55:07;;;;;;;3.40;2.30;;;9.90;99.90;;;;;;5069503;28;20388;-71
2023/05/03 00:57:33;;;;;;;6.67;2.23;;;9.70;99.90;;;;;;5069573;28;20286;-72
2023/05/03 00:59:58;;;;;;;4.13;2.33;;;9.60;99.90;;;;;;5070175;28;20290;-71
2023/05/03 01:02:24;;;;;;;4.77;3.07;;;9.70;99.90;;;;;;5066953;28;20203;-72
2023/05/03 01:04:52;;;;;;;5.53;2.60;;;9.70;99.90;;;;;;5068199;28;20203;-72
2023/05/03 01:07:50;;;;;;;7.40;2.07;;;9.60;99.90;;;;;;5066329;28;20231;-72
2023/05/03 01:10:49;;;;;;;5.73;2.03;;;9.50;99.90;;;;;;5075298;28;20212;-71
2023/05/03 01:13:38;;;;;;;8.13;2.60;;;9.40;99.90;;;;;;5063027;28;20354;-72
2023/05/03 01:16:31;;;;;;;5.70;2.23;;;9.50;99.90;;;;;;5065642;28;20294;-72
2023/05/03 01:19:02;;;;;;;8.50;2.37;;;9.40;99.90;;;;;;5067674;28;20588;-72
2023/05/03 01:21:29;;;;;;;5.53;2.27;;;9.40;99.90;;;;;;5067294;28;20198;-72
2023/05/03 01:24:12;;;;;;;10.07;3.17;;;9.30;99.90;;;;;;5071885;28;20215;-73
2023/05/03 01:26:38;;;;;;;5.67;2.03;;;9.40;99.90;;;;;;5067990;28;20744;-72
2023/05/03 01:29:04;;;;;;;4.37;2.47;;;9.30;99.90;;;;;;5070255;28;20211;-74
2023/05/03 01:31:48;;;;;;;6.27;2.77;;;9.10;99.90;;;;;;5068782;28;20690;-72
2023/05/03 01:34:22;;;;;;;7.97;2.60;;;9.20;99.90;;;;;;5057869;28;20269;-72
2023/05/03 01:36:49;;;;;;;8.17;2.53;;;9.20;99.90;;;;;;5069013;28;20171;-71
2023/05/03 01:39:22;;;;;;;8.03;4.10;;;9.20;99.90;;;;;;5066190;28;20183;-72
2023/05/03 01:41:52;;;;;;;7.47;2.83;;;9.20;99.90;;;;;;5067626;28;20770;-72
2023/05/03 01:44:19;;;;;;;8.90;5.07;;;9.10;99.90;;;;;;5067015;28;20698;-72
2023/05/03 01:46:45;;;;;;;13.97;6.13;;;9.20;99.90;;;;;;5067017;28;20712;-72
2023/05/03 01:49:11;;;;;;;9.53;4.57;;;8.90;99.90;;;;;;5062617;28;20294;-72
2023/05/03 01:51:37;;;;;;;9.37;4.10;;;9.00;99.90;;;;;;5064854;28;20784;-71
2023/05/03 01:54:04;;;;;;;6.23;3.13;;;9.00;99.90;;;;;;5063845;28;20179;-70
2023/05/03 01:56:31;;;;;;;7.00;2.67;;;9.00;99.90;;;;;;5066850;28;20214;-71
2023/05/03 01:58:57;;;;;;;5.10;2.30;;;8.80;99.90;;;;;;5070696;28;20218;-72
2023/05/03 02:01:23;;;;;;;7.90;2.07;;;8.80;99.90;;;;;;5070542;28;20283;-71
2023/05/03 02:03:48;;;;;;;5.13;2.67;;;8.70;99.90;;;;;;5070416;28;20279;-71
2023/05/03 02:06:14;;;;;;;7.57;2.53;;;8.70;99.90;;;;;;5068869;28;20178;-70
2023/05/03 02:08:39;;;;;;;4.40;2.53;;;8.60;99.90;;;;;;5070478;28;20235;-72
2023/05/03 02:11:05;;;;;;;4.27;2.20;;;8.70;99.90;;;;;;5068702;28;20234;-72
2023/05/03 02:13:31;;;;;;;9.90;2.17;;;8.60;99.90;;;;;;5067189;28;20705;-72
2023/05/03 02:15:56;;;;;;;6.43;2.20;;;8.60;99.90;;;;;;5070266;28;20214;-71
2023/05/03 02:18:22;;;;;;;9.20;2.30;;;8.50;99.90;;;;;;5065813;28;20568;-73
2023/05/03 02:20:48;;;;;;;5.87;2.10;;;8.50;99.90;;;;;;5069814;28;20301;-70
2023/05/03 02:23:13;;;;;;;5.87;2.20;;;8.50;99.90;;;;;;5062412;28;20207;-70
2023/05/03 02:25:40;;;;;;;6.37;2.20;;;8.60;99.90;;;;;;5065656;28;20282;-72
2023/05/03 02:28:06;;;;;;;4.27;2.50;;;8.70;99.90;;;;;;5063361;28;20211;-70
2023/05/03 02:30:32;;;;;;;8.73;2.23;;;8.60;99.90;;;;;;5063007;28;20211;-72
2023/05/03 02:32:58;;;;;;;4.13;2.00;;;8.40;99.90;;;;;;5062790;28;20325;-72
2023/05/03 02:35:24;;;;;;;5.77;2.20;;;8.40;99.90;;;;;;5059015;28;20281;-72
2023/05/03 02:37:50;;;;;;;8.23;2.23;;;8.40;99.90;;;;;;5068601;28;20202;-71
2023/05/03 02:40:15;;;;;;;3.53;1.97;;;8.30;99.90;;;;;;5069475;28;20235;-72
2023/05/03 02:42:41;;;;;;;5.33;2.00;;;8.40;99.90;;;;;;5073180;28;20205;-73
2023/05/03 02:45:07;;;;;;;5.43;1.93;;;8.40;99.90;;;;;;5076446;28;20175;-72
2023/05/03 02:47:33;;;;;;;5.67;2.23;;;8.50;99.90;;;;;;5070295;28;20670;-72
2023/05/03 02:49:58;;;;;;;5.00;1.97;;;8.40;99.90;;;;;;5067352;28;20302;-71
2023/05/03 02:52:24;;;;;;;7.47;2.33;;;8.30;99.90;;;;;;5071871;28;20242;-72
2023/05/03 02:54:50;;;;;;;9.13;2.10;;;8.30;99.90;;;;;;5068265;28;20234;-72
2023/05/03 02:57:15;;;;;;;6.63;2.33;;;8.20;99.90;;;;;;5065097;28;20247;-71
2023/05/03 02:59:41;;;;;;;3.27;1.60;;;8.20;99.90;;;;;;5072482;28;20701;-70
2023/05/03 03:02:06;;;;;;;4.50;2.27;;;8.20;99.90;;;;;;5060919;28;20207;-72
2023/05/03 03:04:32;;;;;;;6.67;1.93;;;8.20;99.90;;;;;;5069893;28;20690;-72
2023/05/03 03:06:58;;;;;;;5.43;2.00;;;8.20;99.90;;;;;;5067664;28;20211;-72
2023/05/03 03:09:23;;;;;;;6.83;2.43;;;8.10;99.90;;;;;;5063032;28;20184;-70
2023/05/03 03:11:52;;;;;;;6.57;2.23;;;8.00;99.90;;;;;;5062974;28;20672;-73
2023/05/03 03:14:17;;;;;;;5.63;2.00;;;8.10;99.90;;;;;;5057524;28;20208;-73
2023/05/03 03:16:44;;;;;;;2.57;1.50;;;8.10;99.90;;;;;;5062675;28;20298;-74
2023/05/03 03:19:10;;;;;;;6.60;2.00;;;8.10;99.90;;;;;;5081842;28;20247;-72
2023/05/03 03:21:36;;;;;;;5.70;2.80;;;8.10;99.90;;;;;;5071571;28;20231;-71
2023/05/03 03:24:02;;;;;;;4.13;2.10;;;8.00;99.90;;;;;;5069991;28;20305;-73
2023/05/03 03:26:28;;;;;;;7.10;2.73;;;8.00;99.90;;;;;;5074334;28;20697;-73
2023/05/03 03:28:54;;;;;;;4.63;2.03;;;8.00;99.90;;;;;;5074432;28;20206;-73
2023/05/03 03:31:21;;;;;;;9.17;2.63;;;8.10;99.90;;;;;;5069791;28;20299;-70
2023/05/03 03:33:48;;;;;;;7.07;2.13;;;8.10;99.90;;;;;;5070605;28;20180;-72
2023/05/03 03:36:14;;;;;;;6.93;2.67;;;8.10;99.90;;;;;;5065009;28;20264;-70
2023/05/03 03:38:40;;;;;;;5.43;2.70;;;8.10;99.90;;;;;;5067287;28;20671;-71
2023/05/03 03:41:06;;;;;;;7.67;2.40;;;7.90;99.90;;;;;;5063604;28;20214;-70
2023/05/03 03:43:32;;;;;;;3.10;1.90;;;7.90;99.90;;;;;;5063691;28;20292;-71
2023/05/03 03:45:57;;;;;;;6.70;2.20;;;7.80;99.90;;;;;;5065433;28;20306;-71
2023/05/03 03:48:23;;;;;;;6.83;2.40;;;7.80;99.90;;;;;;5060192;28;20183;-69
2023/05/03 03:50:49;;;;;;;10.30;2.40;;;7.90;99.90;;;;;;5060638;28;20602;-72
2023/05/03 03:53:15;;;;;;;4.77;2.00;;;7.90;99.90;;;;;;5058610;28;20219;-72
2023/05/03 03:55:41;;;;;;;6.83;2.53;;;8.00;99.90;;;;;;5063677;28;20209;-71
2023/05/03 03:58:06;;;;;;;4.37;2.47;;;8.00;99.90;;;;;;5069702;28;20218;-70
2023/05/03 04:00:34;;;;;;;5.43;2.50;;;8.00;99.90;;;;;;5066490;28;20285;-71
2023/05/03 04:03:00;;;;;;;2.83;2.10;;;8.10;99.90;;;;;;5073351;28;20241;-71
2023/05/03 04:05:25;;;;;;;4.80;2.50;;;8.30;99.90;;;;;;5073025;28;20308;-71
2023/05/03 04:07:51;;;;;;;8.87;3.03;;;8.40;99.90;;;;;;5070037;28;20256;-71
2023/05/03 04:10:16;;;;;;;4.77;1.70;;;8.50;99.90;;;;;;5064868;28;20214;-71
2023/05/03 04:12:42;;;;;;;5.13;1.90;;;8.50;99.90;;;;;;5071576;28;20185;-72
2023/05/03 04:15:09;;;;;;;6.27;2.10;;;8.50;99.90;;;;;;5063725;28;20634;-71
2023/05/03 04:17:35;;;;;;;9.80;2.47;;;8.60;99.90;;;;;;5061146;28;20219;-69
2023/05/03 04:20:09;;;;;;;3.83;2.20;;;8.60;99.90;;;;;;5066644;28;20747;-70
2023/05/03 04:22:39;;;;;;;3.47;1.90;;;8.60;99.90;;;;;;5065988;28;20210;-69
2023/05/03 04:25:07;;;;;;;5.53;1.80;;;8.70;99.90;;;;;;5064067;28;20217;-71
2023/05/03 04:27:34;;;;;;;5.07;2.57;;;8.60;99.90;;;;;;5061410;28;20179;-71
2023/05/03 04:29:59;;;;;;;3.40;2.20;;;8.80;99.90;;;;;;5060482;28;20211;-71
2023/05/03 04:32:25;;;;;;;4.83;1.90;;;8.90;99.90;;;;;;5061918;28;20647;-69
2023/05/03 04:34:53;;;;;;;4.73;2.30;;;9.60;99.90;;;;;;5065172;28;20202;-71
2023/05/03 04:37:19;;;;;;;4.97;1.80;;;10.60;99.90;;;;;;5075463;28;20218;-71
2023/05/03 04:39:45;;;;;;;4.97;2.20;;;11.30;99.90;;;;;;5071298;28;20183;-71
2023/05/03 04:42:14;;;;;;;5.43;1.53;;;12.50;99.90;;;;;;5074435;28;20540;-71
2023/05/03 04:44:43;;;;;;;8.90;2.33;;;13.40;99.90;;;;;;5074760;28;20211;-71
2023/05/03 04:47:09;;;;;;;4.93;2.20;;;13.60;99.90;;;;;;5065292;28;20218;-71
2023/05/03 04:49:35;;;;;;;5.55;2.17;;;14.00;99.90;;;;;;5063657;28;20208;-71
2023/05/03 04:52:01;;;;;;;4.22;1.70;;;14.70;99.90;;;;;;5069241;28;20305;-72
2023/05/03 04:54:27;;;;;;;9.13;2.67;;;15.10;99.90;;;;;;5065351;28;20211;-70
2023/05/03 04:56:53;;;;;;;3.83;1.65;;;15.00;99.90;;;;;;5067985;28;20239;-70
2023/05/03 04:59:19;;;;;;;5.28;1.90;;;15.20;99.90;;;;;;5067453;28;20575;-72
2023/05/03 05:01:46;;;;;;;3.28;1.50;;;15.20;99.90;;;;;;5066827;28;20202;-71
2023/05/03 05:04:11;;;;;;;5.13;1.70;;;15.40;99.90;;;;;;5064790;28;20238;-72
2023/05/03 05:06:37;;;;;;;6.88;1.80;;;15.60;99.90;;;;;;5063834;28;20222;-70
2023/05/03 05:09:06;;;;;;;6.03;1.90;;;16.00;99.90;;;;;;5064826;28;20232;-71
2023/05/03 05:11:32;;;;;;;8.98;2.30;;;16.40;99.90;;;;;;5062154;28;20231;-72
2023/05/03 05:13:58;;;;;;;5.05;2.10;;;17.20;99.90;;;;;;5072305;28;20240;-72
2023/05/03 05:16:23;;;;;;;5.88;2.00;;;17.20;99.90;;;;;;5070297;28;20305;-70
2023/05/03 05:18:49;;;;;;;5.85;2.42;;;17.80;99.90;;;;;;5070713;28;20691;-71
2023/05/03 05:21:14;;;;;;;6.90;2.45;;;17.80;99.90;;;;;;5070551;28;20195;-70
2023/05/03 05:23:40;;;;;;;6.15;2.40;;;17.50;99.90;;;;;;5068526;28;20203;-73
2023/05/03 05:26:06;;;;;;;5.38;1.92;;;17.60;99.90;;;;;;5069519;28;20213;-72
2023/05/03 05:28:32;;;;;;;5.88;2.30;;;17.90;99.90;;;;;;5065655;28;20211;-72
2023/05/03 05:30:57;;;;;;;5.18;2.08;;;18.70;99.90;;;;;;5067782;28;20715;-72
2023/05/03 05:33:23;;;;;;;5.82;2.00;;;18.30;99.90;;;;;;5066333;28;20175;-73
2023/05/03 05:35:49;;;;;;;6.78;2.35;;;18.50;99.90;;;;;;5065451;28;20222;-71
2023/05/03 05:38:17;;;;;;;4.18;2.08;;;19.00;99.90;;;;;;5065287;28;20215;-72
2023/05/03 05:40:43;;;;;;;4.03;2.00;;;19.10;99.90;;;;;;5064373;28;20306;-71
2023/05/03 05:43:09;;;;;;;5.50;2.05;;;19.60;99.90;;;;;;5064577;28;20231;-72
2023/05/03 05:45:35;;;;;;;5.80;2.00;;;20.80;98.50;;;;;;5062036;28;20175;-72
2023/05/03 05:48:00;;;;;;;7.20;1.98;;;21.10;96.90;;;;;;5064354;28;20760;-72
2023/05/03 05:50:26;;;;;;;4.93;2.03;;;21.00;95.70;;;;;;5059694;28;20306;-73
2023/05/03 05:52:53;;;;;;;8.65;2.05;;;20.80;95.10;;;;;;5062438;28;20203;-72
2023/05/03 05:55:20;;;;;;;6.53;1.77;;;20.30;93.80;;;;;;5071012;28;20467;-72
2023/05/03 05:57:45;;;;;;;3.28;1.73;;;20.20;95.40;;;;;;5069665;28;20548;-72
2023/05/03 06:00:13;;;;;;;5.90;1.77;;;21.00;94.10;;;;;;5070849;28;20206;-72
2023/05/03 06:02:45;;;;;;;8.63;2.90;;;21.60;93.70;;;;;;5067535;28;20208;-72
2023/05/03 06:05:10;;;;;;;6.38;2.30;;;21.90;92.20;;;;;;5070365;28;20199;-72
2023/05/03 06:07:36;;;;;;;6.13;2.05;;;21.70;92.20;;;;;;5065821;28;20214;-71
2023/05/03 06:10:03;;;;;;;4.97;2.03;;;21.50;91.80;;;;;;5069592;28;20626;-71
2023/05/03 06:12:29;;;;;;;5.22;2.03;;;21.60;91.20;;;;;;5064725;28;20228;-71
2023/05/03 06:14:54;;;;;;;3.38;1.70;;;20.40;92.40;;;;;;5070277;28;20210;-74
2023/05/03 06:17:22;;;;;;;5.60;2.25;;;19.80;93.20;;;;;;5062820;28;20214;-71
2023/05/03 06:19:48;;;;;;;7.32;2.25;;;19.50;94.00;;;;;;5063679;28;20211;-72
2023/05/03 06:22:14;;;;;;;6.15;2.28;;;20.20;93.10;;;;;;5061726;28;20691;-69
2023/05/03 06:24:40;;;;;;;4.97;2.10;;;20.80;93.00;;;;;;5062176;28;20665;-70
2023/05/03 06:27:06;;;;;;;7.50;2.22;;;20.20;93.10;;;;;;5063370;28;20171;-71
2023/05/03 06:29:32;;;;;;;3.97;1.92;;;20.80;92.50;;;;;;5061993;28;20203;-70
2023/05/03 06:31:57;;;;;;;4.50;1.90;;;20.50;93.30;;;;;;5070570;28;20206;-71
2023/05/03 06:34:24;;;;;;;6.07;2.15;;;21.70;92.20;;;;;;5070128;28;20206;-71
2023/05/03 06:36:50;;;;;;;3.72;1.65;;;22.00;91.20;;;;;;5069090;28;20399;-70
2023/05/03 06:39:16;;;;;;;4.88;1.98;;;21.10;91.20;;;;;;5069684;28;20213;-72
2023/05/03 06:41:42;;;;;;;5.65;2.03;;;21.20;91.60;;;;;;5068117;28;20322;-71
2023/05/03 06:44:08;;;;;;;4.75;2.13;;;21.60;90.10;;;;;;5068158;28;20287;-71
2023/05/03 06:46:34;;;;;;;6.45;1.90;;;22.00;90.10;;;;;;5064267;28;20264;-70
2023/05/03 06:49:00;;;;;;;5.22;1.48;;;21.40;89.80;;;;;;5067193;28;20750;-70
2023/05/03 06:51:31;;;;;;;5.85;2.00;;;21.40;90.40;;;;;;5064984;28;20264;-70
2023/05/03 06:54:05;;;;;;;8.15;2.05;;;20.10;91.70;;;;;;5065639;28;20238;-71
2023/05/03 06:56:31;;;;;;;7.05;1.85;;;19.50;91.20;;;;;;5060633;28;20207;-71
2023/05/03 06:58:57;;;;;;;6.20;2.33;;;19.20;92.30;;;;;;5067697;28;20222;-70
2023/05/03 07:01:23;;;;;;;5.53;2.38;;;20.10;92.40;;;;;;5059563;28;20218;-68
2023/05/03 07:03:48;;;;;;;5.78;2.38;;;21.10;91.20;;;;;;5060629;28;20179;-71
2023/05/03 07:06:15;;;;;;;6.57;2.95;;;21.70;90.50;;;;;;5061322;28;20183;-72
2023/05/03 07:08:41;;;;;;;4.45;1.85;;;21.90;89.30;;;;;;5063946;28;20705;-70
2023/05/03 07:11:07;;;;;;;5.10;2.30;;;23.10;87.20;;;;;;5069721;28;20207;-73
2023/05/03 07:13:32;;;;;;;4.93;1.58;;;22.20;86.20;;;;;;5068393;28;20203;-70
2023/05/03 07:15:59;;;;;;;5.80;1.73;;;20.50;88.20;;;;;;5067657;28;20207;-71
2023/05/03 07:18:24;;;;;;;5.60;1.67;;;19.40;88.40;;;;;;5068280;28;20206;-72
2023/05/03 07:20:50;;;;;;;6.22;1.60;;;19.00;90.60;;;;;;5066034;28;20254;-72
2023/05/03 07:23:16;;;;;;;6.43;1.90;;;19.80;90.60;;;;;;5064531;28;20211;-68
2023/05/03 07:25:42;;;;;;;5.55;2.13;;;18.70;90.90;;;;;;5064579;28;20213;-71
2023/05/03 07:28:08;;;;;;;5.68;2.10;;;20.00;90.70;;;;;;5069039;28;20294;-71
2023/05/03 07:30:34;;;;;;;4.28;1.70;;;19.70;90.00;;;;;;5062859;28;20223;-70
2023/05/03 07:33:00;;;;;;;7.53;2.22;;;20.40;89.00;;;;;;5068819;28;20277;-72
2023/05/03 07:35:26;;;;;;;6.38;1.88;;;21.10;88.20;;;;;;5062408;28;20203;-71
2023/05/03 07:37:51;;;;;;;4.88;2.03;;;21.50;87.40;;;;;;5062544;28;20254;-70
2023/05/03 07:40:18;;;;;;;4.43;1.85;;;22.30;85.80;;;;;;5060172;28;20214;-71
2023/05/03 07:42:43;;;;;;;5.65;2.10;;;22.90;84.40;;;;;;5060057;28;20197;-69
2023/05/03 07:45:09;;;;;;;4.25;1.95;;;23.10;81.50;;;;;;5061850;28;20261;-71
2023/05/03 07:47:38;;;;;;;5.32;1.95;;;24.20;79.40;;;;;;5064839;28;20203;-71
2023/05/03 07:50:05;;;;;;;5.15;2.30;;;25.30;77.90;;;;;;5067821;28;20267;-72
2023/05/03 07:52:38;;;;;;;5.63;2.20;;;25.20;77.60;;;;;;5067928;28;20214;-72
2023/05/03 07:55:05;;;;;;;6.45;1.80;;;22.90;79.30;;;;;;5072965;28;20704;-71
2023/05/03 07:57:31;;;;;;;5.15;2.35;;;23.90;78.10;;;;;;5071756;28;20194;-71
2023/05/03 07:59:57;;;;;;;12.20;5.90;;;23.00;80.20;;;;;;5075534;28;20842;-71
2023/05/03 08:02:22;;;;;;;25.83;13.80;;;24.30;79.70;;;;;;5073141;28;20285;-71
2023/05/03 08:04:48;;;;;;;7.55;3.00;;;25.30;78.60;;;;;;5069386;28;20694;-71
2023/05/03 08:07:14;;;;;;;4.70;2.08;;;25.20;75.90;;;;;;5072372;28;20207;-70
2023/05/03 08:09:40;;;;;;;5.10;1.80;;;25.80;74.60;;;;;;5062244;28;20663;-70
2023/05/03 08:12:06;;;;;;;4.55;2.05;;;25.20;76.10;;;;;;5066127;28;20202;-71
2023/05/03 08:14:32;;;;;;;7.65;2.55;;;24.70;76.40;;;;;;5062459;28;20241;-71
2023/05/03 08:16:58;;;;;;;5.22;2.10;;;23.60;76.90;;;;;;5065999;28;20217;-71
2023/05/03 08:19:24;;;;;;;3.15;1.60;;;24.20;77.40;;;;;;5067594;28;20263;-71
2023/05/03 08:21:51;;;;;;;7.65;2.28;;;22.00;79.50;;;;;;5062958;28;20282;-71
2023/05/03 08:24:16;;;;;;;4.10;1.73;;;20.50;80.60;;;;;;5059918;28;20606;-72
2023/05/03 08:26:43;;;;;;;5.78;2.00;;;20.20;82.20;;;;;;5073588;28;20340;-70
2023/05/03 08:29:09;;;;;;;5.32;2.17;;;19.50;83.80;;;;;;5082101;28;20198;-70
2023/05/03 08:31:35;;;;;;;6.68;2.25;;;19.50;85.00;;;;;;5078425;28;20207;-70
2023/05/03 08:34:02;;;;;;;5.93;2.30;;;19.40;85.10;;;;;;5081322;28;20663;-71
2023/05/03 08:36:28;;;;;;;4.65;1.92;;;19.60;86.00;;;;;;5076229;28;20756;-71
2023/05/03 08:38:53;;;;;;;4.43;1.80;;;19.20;85.60;;;;;;5075905;28;20215;-70
2023/05/03 08:41:30;;;;;;;3.97;1.92;;;19.00;86.20;;;;;;5074113;28;20206;-70
2023/05/03 08:43:57;;;;;;;6.97;1.92;;;19.30;87.30;;;;;;5073237;28;20219;-71
2023/05/03 08:46:26;;;;;;;5.82;2.35;;;19.40;85.40;;;;;;5070520;28;20211;-71
2023/05/03 08:48:53;;;;;;;5.55;1.83;;;19.30;86.40;;;;;;5071313;28;20188;-71
2023/05/03 08:51:20;;;;;;;4.05;2.05;;;19.60;86.60;;;;;;5069662;28;20670;-71
2023/05/03 08:53:46;;;;;;;8.10;2.33;;;19.30;85.50;;;;;;5067387;28;20203;-71
2023/05/03 08:56:19;;;;;;;5.20;1.48;;;19.60;86.60;;;;;;5067198;28;20609;-71
2023/05/03 08:58:44;;;;;;;5.53;1.83;;;19.60;85.10;;;;;;5068168;28;20211;-70
2023/05/03 09:01:10;;;;;;;5.07;1.48;;;19.90;84.60;;;;;;5063910;28;20209;-71
2023/05/03 09:03:36;;;;;;;4.03;1.60;;;19.20;84.00;;;;;;5069877;28;20756;-69
2023/05/03 09:06:02;;;;;;;3.78;1.70;;;19.40;86.20;;;;;;5082491;28;20210;-69
2023/05/03 09:08:29;;;;;;;5.00;1.85;;;19.70;85.70;;;;;;5079404;28;20249;-70
2023/05/03 09:10:55;;;;;;;5.32;1.92;;;19.60;85.50;;;;;;5079040;28;20771;-71
2023/05/03 09:13:28;;;;;;;4.78;1.60;;;18.00;86.90;;;;;;5077636;28;20199;-73
2023/05/03 09:15:55;;;;;;;6.00;1.92;;;17.40;90.40;;;;;;5077422;28;20679;-70
2023/05/03 09:18:22;;;;;;;5.15;1.83;;;18.20;91.00;;;;;;5075568;28;20231;-72
2023/05/03 09:20:52;;;;;;;6.47;2.00;;;18.70;89.80;;;;;;5070334;28;20211;-72
2023/05/03 09:23:29;;;;;;;5.75;1.83;;;18.50;89.70;;;;;;5075349;28;20263;-72
2023/05/03 09:25:56;;;;;;;2.88;1.40;;;18.30;88.80;;;;;;5070794;28;20234;-72
2023/05/03 09:28:22;;;;;;;4.43;1.80;;;17.90;89.50;;;;;;5068702;28;20223;-72
2023/05/03 09:30:49;;;;;;;6.55;1.90;;;17.90;90.20;;;;;;5067461;28;20224;-70
2023/05/03 09:33:20;;;;;;;4.13;1.85;;;18.00;90.30;;;;;;5067603;28;20168;-73
2023/05/03 09:36:03;;;;;;;4.45;1.67;;;18.30;89.00;;;;;;5065241;28;20909;-72
2023/05/03 09:38:35;;;;;;;4.78;2.22;;;18.30;88.30;;;;;;5062126;28;20261;-73
2023/05/03 09:41:02;;;;;;;6.18;1.52;;;18.20;88.80;;;;;;5062411;28;20207;-71
2023/05/03 09:43:28;;;;;;;2.78;1.58;;;18.50;87.40;;;;;;5076187;28;20206;-71
2023/05/03 09:46:09;;;;;;;2.45;1.40;;;17.70;87.90;;;;;;5073292;28;20172;-70
2023/05/03 09:48:36;;;;;;;2.95;2.00;;;17.80;89.80;;;;;;5075340;28;20171;-72
2023/05/03 09:51:04;;;;;;;4.18;1.75;;;18.00;90.00;;;;;;5077859;28;20735;-69
2023/05/03 09:53:34;;;;;;;5.75;2.33;;;18.20;90.10;;;;;;5072979;28;20211;-71
2023/05/03 09:56:07;;;;;;;5.18;1.80;;;18.60;90.10;;;;;;5072436;28;21127;-73
2023/05/03 09:58:35;;;;;;;4.22;1.90;;;17.70;90.40;;;;;;5070551;28;20717;-69
2023/05/03 10:01:01;;;;;;;9.48;2.50;;;17.60;90.60;;;;;;5072923;28;20363;-70
2023/05/03 10:03:42;;;;;;;6.13;2.22;;;17.70;91.20;;;;;;5070981;28;20186;-70
2023/05/03 10:06:24;;;;;;;6.68;2.33;;;17.60;90.40;;;;;;5068814;28;20194;-70
2023/05/03 10:09:15;;;;;;;3.05;1.50;;;17.60;91.00;;;;;;5067428;28;20211;-70
2023/05/03 10:11:46;;;;;;;6.97;2.47;;;17.80;91.30;;;;;;5064325;28;20211;-71
2023/05/03 10:14:12;;;;;;;7.80;2.00;;;17.80;91.10;;;;;;5066216;28;20207;-71
2023/05/03 10:16:43;;;;;;;6.22;1.90;;;18.20;90.50;;;;;;5062512;28;20215;-70
2023/05/03 10:19:24;;;;;;;3.95;2.10;;;17.60;90.10;;;;;;5069688;28;20215;-70
2023/05/03 10:22:02;;;;;;;10.27;2.85;;;17.30;90.80;;;;;;5069673;28;20614;-70
2023/05/03 10:24:28;;;;;;;8.05;2.22;;;17.40;91.90;;;;;;5079050;28;20169;-71
2023/05/03 10:26:56;;;;;;;7.45;2.03;;;17.40;92.00;;;;;;5078241;28;20213;-70
2023/05/03 10:29:34;;;;;;;9.85;2.03;;;17.60;92.00;;;;;;5076972;28;20968;-72
2023/05/03 10:32:04;;;;;;;9.20;2.80;;;18.00;91.60;;;;;;5075758;28;20223;-71
2023/05/03 10:34:31;;;;;;;6.18;2.03;;;17.60;91.40;;;;;;5071643;28;20199;-73
2023/05/03 10:37:01;;;;;;;6.78;1.92;;;17.70;91.30;;;;;;5073707;28;20234;-72
2023/05/03 10:39:28;;;;;;;3.60;2.00;;;17.40;91.30;;;;;;5069863;28;20195;-71
2023/05/03 10:41:57;;;;;;;4.15;1.88;;;17.70;91.50;;;;;;5069572;28;20251;-72
2023/05/03 10:44:28;;;;;;;6.95;1.98;;;17.80;91.30;;;;;;5083374;28;20689;-72
2023/05/03 10:46:54;;;;;;;4.57;2.05;;;17.90;92.20;;;;;;5069169;28;20203;-72
2023/05/03 10:49:21;;;;;;;3.90;1.75;;;17.70;92.20;;;;;;5066611;28;20207;-72
2023/05/03 10:51:47;;;;;;;6.53;1.77;;;17.80;92.00;;;;;;5063130;28;20207;-72
2023/05/03 10:54:13;;;;;;;8.43;2.45;;;17.50;91.60;;;;;;5071184;28;20637;-71
2023/05/03 10:56:54;;;;;;;6.28;1.88;;;17.50;92.20;;;;;;5060785;28;20195;-72
2023/05/03 10:59:21;;;;;;;4.95;2.03;;;17.50;92.10;;;;;;5072821;28;20220;-72
2023/05/03 11:01:50;;;;;;;4.35;1.75;;;17.80;91.90;;;;;;5080953;28;20210;-72
2023/05/03 11:04:25;;;;;;;5.60;1.83;;;17.80;91.10;;;;;;5079981;28;20206;-72
2023/05/03 11:06:55;;;;;;;7.13;2.20;;;18.00;91.50;;;;;;5074779;28;20557;-72
2023/05/03 11:09:29;;;;;;;5.20;2.05;;;18.10;91.40;;;;;;5072254;28;20705;-72
2023/05/03 11:11:55;;;;;;;3.92;1.92;;;18.00;91.80;;;;;;5072183;28;20218;-72
2023/05/03 11:14:21;;;;;;;7.40;2.30;;;17.60;92.60;;;;;;5073807;28;20202;-73
2023/05/03 11:16:49;;;;;;;6.82;2.63;;;18.10;92.90;;;;;;5065058;28;20301;-72
2023/05/03 11:19:15;;;;;;;10.13;2.10;;;17.90;92.40;;;;;;5071083;28;20287;-72
2023/05/03 11:21:41;;;;;;;4.53;2.25;;;17.80;92.90;;;;;;5067389;28;20684;-71
2023/05/03 11:24:07;;;;;;;6.40;2.47;;;17.90;92.60;;;;;;5069747;28;20174;-72
2023/05/03 11:26:37;;;;;;;4.82;2.13;;;17.70;92.30;;;;;;5065647;28;20599;-73
2023/05/03 11:29:03;;;;;;;3.75;1.65;;;17.60;91.80;;;;;;5063853;28;20242;-70
2023/05/03 11:31:30;;;;;;;4.07;1.83;;;17.60;92.50;;;;;;5062108;28;20217;-69
2023/05/03 11:33:56;;;;;;;6.30;2.10;;;17.20;92.40;;;;;;5061975;28;20277;-69
2023/05/03 11:36:21;;;;;;;5.50;1.95;;;16.90;92.40;;;;;;5062503;28;20646;-73
2023/05/03 11:38:47;;;;;;;4.18;1.90;;;17.10;93.20;;;;;;5064903;28;20214;-72
2023/05/03 11:41:15;;;;;;;5.30;2.35;;;17.40;93.00;;;;;;5084446;28;20216;-71
2023/05/03 11:43:45;;;;;;;4.43;1.92;;;17.60;93.20;;;;;;5075835;28;20592;-72
2023/05/03 11:46:21;;;;;;;4.00;2.20;;;17.10;92.50;;;;;;5071471;28;20209;-72
2023/05/03 11:48:48;;;;;;;5.15;2.00;;;16.50;93.10;;;;;;5069661;28;20549;-72
2023/05/03 11:51:14;;;;;;;2.72;1.70;;;16.10;93.50;;;;;;5075227;28;20233;-72
2023/05/03 11:53:44;;;;;;;5.75;1.90;;;16.60;94.60;;;;;;5070918;28;20308;-72
2023/05/03 11:56:14;;;;;;;6.88;2.30;;;16.80;93.60;;;;;;5072764;28;20206;-71
2023/05/03 11:58:56;;;;;;;4.35;1.50;;;16.60;92.70;;;;;;5068567;28;20271;-72
2023/05/03 12:01:23;;;;;;;6.32;1.92;;;16.80;93.40;;;;;;5066585;28;20207;-72
2023/05/03 12:04:00;;;;;;;3.13;1.45;;;16.90;93.40;;;;;;5064698;28;20176;-72
2023/05/03 12:06:27;;;;;;;3.40;1.45;;;17.10;93.00;;;;;;5064816;28;20179;-72
2023/05/03 12:08:53;;;;;;;3.45;1.42;;;17.00;92.60;;;;;;5061819;28;20230;-72
2023/05/03 12:11:20;;;;;;;2.42;1.40;;;17.10;92.30;;;;;;5063605;28;20203;-72
2023/05/03 12:13:58;;;;;;;5.45;2.70;;;17.30;92.20;;;;;;5059223;28;20206;-72
2023/05/03 12:16:24;;;;;;;3.55;1.60;;;17.40;91.80;;;;;;5067429;28;20198;-73
2023/05/03 12:19:01;;;;;;;3.35;1.90;;;17.50;91.50;;;;;;5075728;28;20273;-71
2023/05/03 12:21:44;;;;;;;5.38;1.58;;;17.00;91.10;;;;;;5078344;28;20198;-72
2023/05/03 12:24:09;;;;;;;4.32;1.50;;;16.30;91.80;;;;;;5078986;28;20193;-71
2023/05/03 12:26:35;;;;;;;7.75;2.03;;;16.20;92.80;;;;;;5075049;28;20199;-70
2023/05/03 12:29:01;;;;;;;5.72;2.08;;;16.40;93.30;;;;;;5072426;28;20584;-70
2023/05/03 12:31:27;;;;;;;5.97;1.60;;;16.50;93.60;;;;;;5072542;28;20211;-70
2023/05/03 12:33:53;;;;;;;3.15;1.70;;;16.50;93.40;;;;;;5069561;28;20179;-70
2023/05/03 12:36:20;;;;;;;6.97;1.60;;;16.40;93.60;;;;;;5071749;28;20170;-69
2023/05/03 12:38:46;;;;;;;1.95;1.40;;;16.20;93.40;;;;;;5065109;28;20298;-71
2023/05/03 12:41:12;;;;;;;4.80;1.67;;;16.30;93.80;;;;;;5069820;28;20310;-71
2023/05/03 12:43:38;;;;;;;5.45;1.75;;;16.60;93.80;;;;;;5070105;28;20199;-69
2023/05/03 12:46:04;;;;;;;4.25;1.77;;;16.50;93.50;;;;;;5066262;28;20210;-69
2023/05/03 12:48:30;;;;;;;5.68;2.08;;;16.20;93.70;;;;;;5064188;28;20175;-71
2023/05/03 12:50:56;;;;;;;5.93;1.95;;;16.40;93.70;;;;;;5059902;28;20306;-71
2023/05/03 12:53:23;;;;;;;6.50;1.80;;;16.50;92.80;;;;;;5061391;28;20738;-71